Time;durP1;ratioP1;P1;durP2;ratioP2;P2;SDS_P1;SDS_P2;PMS_P1;PMS_P2;Temp;Humidity;BMP_temperature;BMP_pressure;BME280_temperature;BME280_humidity;BME280_pressure;Samples;Min_cycle;Max_cycle;Signal;HPM_P1;HPM_P2
2023/12/28 00:01:09;;;;;;;;;;;;;;;;;;5141444;28;20293;-57
2023/12/28 00:03:41;;;;;;;;;;;;;;;;;;5141340;28;19918;-57
2023/12/28 00:06:12;;;;;;;;;;;;;;;;;;5142018;28;20361;-57
2023/12/28 00:08:43;;;;;;;;;;;;;;;;;;5125150;28;19974;-57
2023/12/28 00:11:14;;;;;;;;;;;;;;;;;;5125604;28;20020;-58
2023/12/28 00:13:45;;;;;;;;;;;;;;;;;;5140600;28;19918;-58
2023/12/28 00:16:16;;;;;;;;;;;;;;;;;;5141057;28;19925;-57
2023/12/28 00:18:47;;;;;;;;;;;;;;;;;;5125647;28;19922;-58
2023/12/28 00:21:18;;;;;;;;;;;;;;;;;;5125497;28;19926;-58
2023/12/28 00:23:49;;;;;;;;;;;;;;;;;;5141322;28;19948;-58
2023/12/28 00:26:21;;;;;;;;;;;;;;;;;;5141428;28;20293;-57
2023/12/28 00:28:52;;;;;;;;;;;;;;;;;;5141494;28;20372;-58
2023/12/28 00:31:23;;;;;;;;;;;;;;;;;;5124810;28;19972;-57
2023/12/28 00:33:54;;;;;;;;;;;;;;;;;;5141290;28;19918;-57
2023/12/28 00:36:25;;;;;;;;;;;;;;;;;;5125496;28;19918;-57
2023/12/28 00:38:56;;;;;;;;;;;;;;;;;;5142376;28;19933;-57
2023/12/28 00:41:27;;;;;;;;;;;;;;;;;;5144945;28;19922;-57
2023/12/28 00:43:58;;;;;;;;;;;;;;;;;;5144996;28;19973;-57
2023/12/28 00:46:29;;;;;;;;;;;;;;;;;;5145373;28;19918;-57
2023/12/28 00:49:00;;;;;;;;;;;;;;;;;;5143505;28;20361;-57
2023/12/28 00:51:31;;;;;;;;;;;;;;;;;;5145151;28;19928;-57
2023/12/28 00:54:02;;;;;;;;;;;;;;;;;;5128471;28;19922;-57
2023/12/28 00:56:33;;;;;;;;;;;;;;;;;;5129402;28;19944;-57
2023/12/28 00:59:04;;;;;;;;;;;;;;;;;;5128642;28;19918;-57
2023/12/28 01:01:35;;;;;;;;;;;;;;;;;;5129012;28;19944;-57
2023/12/28 01:04:06;;;;;;;;;;;;;;;;;;5144298;28;19918;-57
2023/12/28 01:06:37;;;;;;;;;;;;;;;;;;5145057;28;19918;-57
2023/12/28 01:09:08;;;;;;;;;;;;;;;;;;5144541;28;19928;-57
2023/12/28 01:11:39;;;;;;;;;;;;;;;;;;5128612;28;19960;-57
2023/12/28 01:14:10;;;;;;;;;;;;;;;;;;5154035;28;19968;-57
2023/12/28 01:16:43;;;;;;;;;;;;;;;;;;5148256;28;20409;-57
2023/12/28 01:19:14;;;;;;;;;;;;;;;;;;5128625;28;19926;-57
2023/12/28 01:21:45;;;;;;;;;;;;;;;;;;5144129;28;19926;-57
2023/12/28 01:24:16;;;;;;;;;;;;;;;;;;5143447;28;19931;-57
2023/12/28 01:26:47;;;;;;;;;;;;;;;;;;5144276;28;19918;-57
2023/12/28 01:29:18;;;;;;;;;;;;;;;;;;5144732;28;19922;-57
2023/12/28 01:31:49;;;;;;;;;;;;;;;;;;5124011;28;19954;-57
2023/12/28 01:34:20;;;;;;;;;;;;;;;;;;5144011;28;19918;-57
2023/12/28 01:36:51;;;;;;;;;;;;;;;;;;5144702;28;19940;-57
2023/12/28 01:39:22;;;;;;;;;;;;;;;;;;5144383;28;19924;-58
2023/12/28 01:41:53;;;;;;;;;;;;;;;;;;5144058;28;20369;-57
2023/12/28 01:44:25;;;;;;;;;;;;;;;;;;5128334;28;20339;-57
2023/12/28 01:46:56;;;;;;;;;;;;;;;;;;5144343;28;19918;-57
2023/12/28 01:49:27;;;;;;;;;;;;;;;;;;5144272;28;19981;-57
2023/12/28 01:51:58;;;;;;;;;;;;;;;;;;5144383;28;19928;-57
2023/12/28 01:54:30;;;;;;;;;;;;;;;;;;5143430;28;20337;-57
2023/12/28 01:57:01;;;;;;;;;;;;;;;;;;5143809;28;19925;-58
2023/12/28 01:59:32;;;;;;;;;;;;;;;;;;5144242;28;20333;-57
2023/12/28 02:02:03;;;;;;;;;;;;;;;;;;5143812;28;19922;-57
2023/12/28 02:04:34;;;;;;;;;;;;;;;;;;5143865;28;20350;-57
2023/12/28 02:07:05;;;;;;;;;;;;;;;;;;5143659;28;19973;-57
2023/12/28 02:09:36;;;;;;;;;;;;;;;;;;5127371;28;19922;-57
2023/12/28 02:12:07;;;;;;;;;;;;;;;;;;5128129;28;19976;-57
2023/12/28 02:14:38;;;;;;;;;;;;;;;;;;5127658;28;19926;-57
2023/12/28 02:17:09;;;;;;;;;;;;;;;;;;5127659;28;19929;-57
2023/12/28 02:19:40;;;;;;;;;;;;;;;;;;5127143;28;19965;-57
2023/12/28 02:22:11;;;;;;;;;;;;;;;;;;5143779;28;20365;-57
2023/12/28 02:24:42;;;;;;;;;;;;;;;;;;5127311;28;19925;-57
2023/12/28 02:27:13;;;;;;;;;;;;;;;;;;5127200;28;20004;-57
2023/12/28 02:29:44;;;;;;;;;;;;;;;;;;5127519;28;20263;-56
2023/12/28 02:32:15;;;;;;;;;;;;;;;;;;5140648;28;19918;-56
2023/12/28 02:34:46;;;;;;;;;;;;;;;;;;5127138;28;19918;-56
2023/12/28 02:37:17;;;;;;;;;;;;;;;;;;5143484;28;19918;-56
2023/12/28 02:39:48;;;;;;;;;;;;;;;;;;5127201;28;20277;-56
2023/12/28 02:42:19;;;;;;;;;;;;;;;;;;5126953;28;19933;-56
2023/12/28 02:44:50;;;;;;;;;;;;;;;;;;5134397;28;20419;-57
2023/12/28 02:47:21;;;;;;;;;;;;;;;;;;5145173;28;20056;-56
2023/12/28 02:49:52;;;;;;;;;;;;;;;;;;5142240;28;19922;-56
2023/12/28 02:52:23;;;;;;;;;;;;;;;;;;5142390;28;19918;-56
2023/12/28 02:54:54;;;;;;;;;;;;;;;;;;5142432;28;19918;-56
2023/12/28 02:57:25;;;;;;;;;;;;;;;;;;5142686;28;19922;-56
2023/12/28 03:00:01;;;;;;;;;;;;;;;;;;5142353;28;20022;-56
2023/12/28 03:02:32;;;;;;;;;;;;;;;;;;5141824;28;19926;-55
2023/12/28 03:05:03;;;;;;;;;;;;;;;;;;5142805;28;19918;-56
2023/12/28 03:07:34;;;;;;;;;;;;;;;;;;5142687;28;19929;-55
2023/12/28 03:10:05;;;;;;;;;;;;;;;;;;5142125;28;19918;-55
2023/12/28 03:12:36;;;;;;;;;;;;;;;;;;5131779;28;20348;-56
2023/12/28 03:15:07;;;;;;;;;;;;;;;;;;5142694;28;19918;-56
2023/12/28 03:17:38;;;;;;;;;;;;;;;;;;5148037;28;20172;-55
2023/12/28 03:20:10;;;;;;;;;;;;;;;;;;5135329;28;20362;-55
2023/12/28 03:22:41;;;;;;;;;;;;;;;;;;5142209;28;20017;-55
2023/12/28 03:25:12;;;;;;;;;;;;;;;;;;5142504;28;20329;-56
2023/12/28 03:27:43;;;;;;;;;;;;;;;;;;5126040;28;20045;-57
2023/12/28 03:30:14;;;;;;;;;;;;;;;;;;5125694;28;19944;-57
2023/12/28 03:32:45;;;;;;;;;;;;;;;;;;5126275;28;19918;-56
2023/12/28 03:35:16;;;;;;;;;;;;;;;;;;5142137;28;20345;-56
2023/12/28 03:37:47;;;;;;;;;;;;;;;;;;5142406;28;19918;-56
2023/12/28 03:40:18;;;;;;;;;;;;;;;;;;5141852;28;19922;-57
2023/12/28 03:42:49;;;;;;;;;;;;;;;;;;5158069;28;19976;-56
2023/12/28 03:45:20;;;;;;;;;;;;;;;;;;5125490;28;19918;-56
2023/12/28 03:47:51;;;;;;;;;;;;;;;;;;5126340;28;19957;-56
2023/12/28 03:50:22;;;;;;;;;;;;;;;;;;5141463;28;19922;-56
2023/12/28 03:52:53;;;;;;;;;;;;;;;;;;5125993;28;19972;-56
2023/12/28 03:55:24;;;;;;;;;;;;;;;;;;5125671;28;19969;-56
2023/12/28 03:57:55;;;;;;;;;;;;;;;;;;5141851;28;19976;-56
2023/12/28 04:00:26;;;;;;;;;;;;;;;;;;5125292;28;19940;-56
2023/12/28 04:02:59;;;;;;;;;;;;;;;;;;5141755;28;20397;-56
2023/12/28 04:05:30;;;;;;;;;;;;;;;;;;5141157;28;19914;-56
2023/12/28 04:08:01;;;;;;;;;;;;;;;;;;5141487;28;19918;-55
2023/12/28 04:10:32;;;;;;;;;;;;;;;;;;5125272;28;19997;-56
2023/12/28 04:13:03;;;;;;;;;;;;;;;;;;5140794;28;20344;-56
2023/12/28 04:15:34;;;;;;;;;;;;;;;;;;5156601;28;19918;-56
2023/12/28 04:18:05;;;;;;;;;;;;;;;;;;5141204;28;19914;-56
2023/12/28 04:20:36;;;;;;;;;;;;;;;;;;5141226;28;19921;-56
2023/12/28 04:23:07;;;;;;;;;;;;;;;;;;5141317;28;19965;-56
2023/12/28 04:25:38;;;;;;;;;;;;;;;;;;5125599;28;20305;-56
2023/12/28 04:28:09;;;;;;;;;;;;;;;;;;5141358;28;20012;-56
2023/12/28 04:30:40;;;;;;;;;;;;;;;;;;5140954;28;19965;-57
2023/12/28 04:33:11;;;;;;;;;;;;;;;;;;5141451;28;19933;-56
2023/12/28 04:35:42;;;;;;;;;;;;;;;;;;5143283;28;19918;-56
2023/12/28 04:38:13;;;;;;;;;;;;;;;;;;5152208;28;19918;-56
2023/12/28 04:40:44;;;;;;;;;;;;;;;;;;5124760;28;19933;-58
2023/12/28 04:43:15;;;;;;;;;;;;;;;;;;5141833;28;19965;-56
2023/12/28 04:45:46;;;;;;;;;;;;;;;;;;5124250;28;19937;-56
2023/12/28 04:48:23;;;;;;;;;;;;;;;;;;5141144;28;19926;-56
2023/12/28 04:50:54;;;;;;;;;;;;;;;;;;5125540;28;19917;-56
2023/12/28 04:53:25;;;;;;;;;;;;;;;;;;5141395;28;20008;-57
2023/12/28 04:55:56;;;;;;;;;;;;;;;;;;5140886;28;19922;-56
2023/12/28 04:58:27;;;;;;;;;;;;;;;;;;5140953;28;20356;-57
2023/12/28 05:00:59;;;;;;;;;;;;;;;;;;5140106;28;19922;-56
2023/12/28 05:03:30;;;;;;;;;;;;;;;;;;5152614;28;20420;-56
2023/12/28 05:06:01;;;;;;;;;;;;;;;;;;5140824;28;19972;-56
2023/12/28 05:08:32;;;;;;;;;;;;;;;;;;5140536;28;20323;-56
2023/12/28 05:11:03;;;;;;;;;;;;;;;;;;5140231;28;19918;-56
2023/12/28 05:13:34;;;;;;;;;;;;;;;;;;5141030;28;20306;-57
2023/12/28 05:16:05;;;;;;;;;;;;;;;;;;5141913;28;19922;-57
2023/12/28 05:18:37;;;;;;;;;;;;;;;;;;5125609;28;19918;-57
2023/12/28 05:21:08;;;;;;;;;;;;;;;;;;5124217;28;19968;-57
2023/12/28 05:23:39;;;;;;;;;;;;;;;;;;5141245;28;20353;-57
2023/12/28 05:26:10;;;;;;;;;;;;;;;;;;5143495;28;19926;-57
2023/12/28 05:28:41;;;;;;;;;;;;;;;;;;5128567;28;19925;-57
2023/12/28 05:31:13;;;;;;;;;;;;;;;;;;5127853;28;19926;-57
2023/12/28 05:33:44;;;;;;;;;;;;;;;;;;5128907;28;20312;-57
2023/12/28 05:36:15;;;;;;;;;;;;;;;;;;5145162;28;19922;-57
2023/12/28 05:38:46;;;;;;;;;;;;;;;;;;5144322;28;19918;-57
2023/12/28 05:41:17;;;;;;;;;;;;;;;;;;5145267;28;20499;-57
2023/12/28 05:43:48;;;;;;;;;;;;;;;;;;5148099;28;19922;-57
2023/12/28 05:46:19;;;;;;;;;;;;;;;;;;5128006;28;19964;-56
2023/12/28 05:48:50;;;;;;;;;;;;;;;;;;5143943;28;19944;-57
2023/12/28 05:51:21;;;;;;;;;;;;;;;;;;5144249;28;20000;-59
2023/12/28 05:53:52;;;;;;;;;;;;;;;;;;5143889;28;19921;-58
2023/12/28 05:56:23;;;;;;;;;;;;;;;;;;5144010;28;20413;-57
2023/12/28 05:58:54;;;;;;;;;;;;;;;;;;5129939;28;19928;-57
2023/12/28 06:01:25;;;;;;;;;;;;;;;;;;5163704;28;20288;-57
2023/12/28 06:03:56;;;;;;;;;;;;;;;;;;5128181;28;19929;-57
2023/12/28 06:06:27;;;;;;;;;;;;;;;;;;5143726;28;19947;-57
2023/12/28 06:08:58;;;;;;;;;;;;;;;;;;5143551;28;20415;-58
2023/12/28 06:11:30;;;;;;;;;;;;;;;;;;5143629;28;19932;-57
2023/12/28 06:14:01;;;;;;;;;;;;;;;;;;5143655;28;19918;-57
2023/12/28 06:16:33;;;;;;;;;;;;;;;;;;5128825;28;19918;-57
2023/12/28 06:19:05;;;;;;;;;;;;;;;;;;5152108;28;19925;-57
2023/12/28 06:21:36;;;;;;;;;;;;;;;;;;5127229;28;19926;-56
2023/12/28 06:24:07;;;;;;;;;;;;;;;;;;5127626;28;19933;-56
2023/12/28 06:26:38;;;;;;;;;;;;;;;;;;5127654;28;20291;-57
2023/12/28 06:29:09;;;;;;;;;;;;;;;;;;5143296;28;19922;-58
2023/12/28 06:31:40;;;;;;;;;;;;;;;;;;5143416;28;19925;-57
2023/12/28 06:34:11;;;;;;;;;;;;;;;;;;5143255;28;19984;-58
2023/12/28 06:36:43;;;;;;;;;;;;;;;;;;5126385;28;19968;-59
2023/12/28 06:39:14;;;;;;;;;;;;;;;;;;5127169;28;19924;-58
2023/12/28 06:41:45;;;;;;;;;;;;;;;;;;5144511;28;19976;-57
2023/12/28 06:44:16;;;;;;;;;;;;;;;;;;5132907;28;20738;-57
2023/12/28 06:46:47;;;;;;;;;;;;;;;;;;5150060;28;19933;-57
2023/12/28 06:49:18;;;;;;;;;;;;;;;;;;5142819;28;19929;-57
2023/12/28 06:51:49;;;;;;;;;;;;;;;;;;5142568;28;19926;-56
2023/12/28 06:54:21;;;;;;;;;;;;;;;;;;5142994;28;19922;-56
2023/12/28 06:56:52;;;;;;;;;;;;;;;;;;5142761;28;19976;-57
2023/12/28 06:59:23;;;;;;;;;;;;;;;;;;5126477;28;19918;-57
2023/12/28 07:01:54;;;;;;;;;;;;;;;;;;5142458;28;19929;-57
2023/12/28 07:04:28;;;;;;;;;;;;;;;;;;5147273;28;19918;-56
2023/12/28 07:07:00;;;;;;;;;;;;;;;;;;5142928;28;20004;-57
2023/12/28 07:09:31;;;;;;;;;;;;;;;;;;5142354;28;19975;-57
2023/12/28 07:12:02;;;;;;;;;;;;;;;;;;5142893;28;20398;-57
2023/12/28 07:14:36;;;;;;;;;;;;;;;;;;5142482;28;19930;-56
2023/12/28 07:17:07;;;;;;;;;;;;;;;;;;5126689;28;19941;-56
2023/12/28 07:19:38;;;;;;;;;;;;;;;;;;5142517;28;19917;-56
2023/12/28 07:22:09;;;;;;;;;;;;;;;;;;5142190;28;19952;-56
2023/12/28 07:24:40;;;;;;;;;;;;;;;;;;5142351;28;19945;-56
2023/12/28 07:27:11;;;;;;;;;;;;;;;;;;5142301;28;20397;-56
2023/12/28 07:29:42;;;;;;;;;;;;;;;;;;5151066;28;20052;-55
2023/12/28 07:32:14;;;;;;;;;;;;;;;;;;5141912;28;19968;-56
2023/12/28 07:34:45;;;;;;;;;;;;;;;;;;5126126;28;19918;-56
2023/12/28 07:37:16;;;;;;;;;;;;;;;;;;5125971;28;20383;-55
2023/12/28 07:39:47;;;;;;;;;;;;;;;;;;5141950;28;20008;-56
2023/12/28 07:42:18;;;;;;;;;;;;;;;;;;5141856;28;20118;-55
2023/12/28 07:44:49;;;;;;;;;;;;;;;;;;5126306;28;20504;-56
2023/12/28 07:47:20;;;;;;;;;;;;;;;;;;5154701;28;20077;-56
2023/12/28 07:49:51;;;;;;;;;;;;;;;;;;5141976;28;19933;-57
2023/12/28 07:52:22;;;;;;;;;;;;;;;;;;5141691;28;20368;-56
2023/12/28 07:54:53;;;;;;;;;;;;;;;;;;5150186;28;19921;-57
2023/12/28 07:57:24;;;;;;;;;;;;;;;;;;5141780;28;19932;-57
2023/12/28 07:59:55;;;;;;;;;;;;;;;;;;5141831;28;20004;-56
2023/12/28 08:02:27;;;;;;;;;;;;;;;;;;5141840;28;19922;-57
2023/12/28 08:04:58;;;;;;;;;;;;;;;;;;5125924;28;20285;-56
2023/12/28 08:07:29;;;;;;;;;;;;;;;;;;5141998;28;20321;-57
2023/12/28 08:10:00;;;;;;;;;;;;;;;;;;5143024;28;19926;-56
2023/12/28 08:12:31;;;;;;;;;;;;;;;;;;5141275;28;20281;-57
2023/12/28 08:15:02;;;;;;;;;;;;;;;;;;5140981;28;19918;-57
2023/12/28 08:17:33;;;;;;;;;;;;;;;;;;5141706;28;19929;-57
2023/12/28 08:20:04;;;;;;;;;;;;;;;;;;5130383;28;19922;-60
2023/12/28 08:22:37;;;;;;;;;;;;;;;;;;5141870;28;20339;-60
2023/12/28 08:25:08;;;;;;;;;;;;;;;;;;5141599;28;20009;-61
2023/12/28 08:27:39;;;;;;;;;;;;;;;;;;5141418;28;20357;-61
2023/12/28 08:30:10;;;;;;;;;;;;;;;;;;5141710;28;19918;-61
2023/12/28 08:32:41;;;;;;;;;;;;;;;;;;5124594;28;19940;-59
2023/12/28 08:35:12;;;;;;;;;;;;;;;;;;5140979;28;19918;-59
2023/12/28 08:37:43;;;;;;;;;;;;;;;;;;5140427;28;19924;-58
2023/12/28 08:40:14;;;;;;;;;;;;;;;;;;5140751;28;20376;-57
2023/12/28 08:42:45;;;;;;;;;;;;;;;;;;5124572;28;20009;-59
2023/12/28 08:45:16;;;;;;;;;;;;;;;;;;5125080;28;19969;-58
2023/12/28 08:47:47;;;;;;;;;;;;;;;;;;5141318;28;19968;-58
2023/12/28 08:50:18;;;;;;;;;;;;;;;;;;5125388;28;19914;-57
2023/12/28 08:52:49;;;;;;;;;;;;;;;;;;5143402;28;19918;-59
2023/12/28 08:55:20;;;;;;;;;;;;;;;;;;5139126;28;20000;-58
2023/12/28 08:57:51;;;;;;;;;;;;;;;;;;5144468;28;20009;-58
2023/12/28 09:00:22;;;;;;;;;;;;;;;;;;5142805;28;19929;-58
2023/12/28 09:02:53;;;;;;;;;;;;;;;;;;5144492;28;20330;-58
2023/12/28 09:05:24;;;;;;;;;;;;;;;;;;5161181;28;19969;-58
2023/12/28 09:07:55;;;;;;;;;;;;;;;;;;5144227;28;20005;-59
2023/12/28 09:10:26;;;;;;;;;;;;;;;;;;5144972;28;19948;-58
2023/12/28 09:12:57;;;;;;;;;;;;;;;;;;5128640;28;19922;-58
2023/12/28 09:15:28;;;;;;;;;;;;;;;;;;5144336;28;19929;-58
2023/12/28 09:17:59;;;;;;;;;;;;;;;;;;5153134;28;19935;-59
2023/12/28 09:20:30;;;;;;;;;;;;;;;;;;5144373;28;19929;-58
2023/12/28 09:23:01;;;;;;;;;;;;;;;;;;5128671;28;20377;-58
2023/12/28 09:25:32;;;;;;;;;;;;;;;;;;5144122;28;20008;-58
2023/12/28 09:28:03;;;;;;;;;;;;;;;;;;5128362;28;20358;-58
2023/12/28 09:30:34;;;;;;;;;;;;;;;;;;5144210;28;19933;-59
2023/12/28 09:33:05;;;;;;;;;;;;;;;;;;5128608;28;20262;-58
2023/12/28 09:35:36;;;;;;;;;;;;;;;;;;5128381;28;20684;-58
2023/12/28 09:38:08;;;;;;;;;;;;;;;;;;5144482;28;19926;-58
2023/12/28 09:40:39;;;;;;;;;;;;;;;;;;5144007;28;19980;-60
2023/12/28 09:43:10;;;;;;;;;;;;;;;;;;5128160;28;19936;-58
2023/12/28 09:45:41;;;;;;;;;;;;;;;;;;5127478;28;19941;-58
2023/12/28 09:48:12;;;;;;;;;;;;;;;;;;5128301;28;19918;-58
2023/12/28 09:50:43;;;;;;;;;;;;;;;;;;5143509;28;19997;-57
2023/12/28 09:53:14;;;;;;;;;;;;;;;;;;5143835;28;19925;-58
2023/12/28 09:55:46;;;;;;;;;;;;;;;;;;5143742;28;19950;-58
2023/12/28 09:58:17;;;;;;;;;;;;;;;;;;5143940;28;20367;-59
2023/12/28 10:00:48;;;;;;;;;;;;;;;;;;5127317;28;19928;-59
2023/12/28 10:03:19;;;;;;;;;;;;;;;;;;5144000;28;20410;-58
2023/12/28 10:05:50;;;;;;;;;;;;;;;;;;5143599;28;19931;-59
2023/12/28 10:08:21;;;;;;;;;;;;;;;;;;5140665;28;20460;-59
2023/12/28 10:10:54;;;;;;;;;;;;;;;;;;5142505;28;20381;-59
2023/12/28 10:13:25;;;;;;;;;;;;;;;;;;5126987;28;19921;-59
2023/12/28 10:15:56;;;;;;;;;;;;;;;;;;5127245;28;19926;-59
2023/12/28 10:18:27;;;;;;;;;;;;;;;;;;5154317;28;19922;-59
2023/12/28 10:20:58;;;;;;;;;;;;;;;;;;5140070;28;19922;-59
2023/12/28 10:23:29;;;;;;;;;;;;;;;;;;5143433;28;19993;-59
2023/12/28 10:26:00;;;;;;;;;;;;;;;;;;5145293;28;20391;-59
2023/12/28 10:28:32;;;;;;;;;;;;;;;;;;5127245;28;20309;-59
2023/12/28 10:31:04;;;;;;;;;;;;;;;;;;5127149;28;19918;-59
2023/12/28 10:33:35;;;;;;;;;;;;;;;;;;5143541;28;20302;-59
2023/12/28 10:36:06;;;;;;;;;;;;;;;;;;5127349;28;20422;-59
2023/12/28 10:38:37;;;;;;;;;;;;;;;;;;5126964;28;19918;-59
2023/12/28 10:41:08;;;;;;;;;;;;;;;;;;5142719;28;19922;-59
2023/12/28 10:43:39;;;;;;;;;;;;;;;;;;5126665;28;20293;-58
2023/12/28 10:46:10;;;;;;;;;;;;;;;;;;5142960;28;19922;-58
2023/12/28 10:48:42;;;;;;;;;;;;;;;;;;5142881;28;19918;-58
2023/12/28 10:51:13;;;;;;;;;;;;;;;;;;5142153;28;19918;-59
2023/12/28 10:53:44;;;;;;;;;;;;;;;;;;5143885;28;20012;-59
2023/12/28 10:56:15;;;;;;;;;;;;;;;;;;5126517;28;19922;-59
2023/12/28 10:58:46;;;;;;;;;;;;;;;;;;5126385;28;19941;-59
2023/12/28 11:01:17;;;;;;;;;;;;;;;;;;5142566;28;19921;-59
2023/12/28 11:03:48;;;;;;;;;;;;;;;;;;5142511;28;19925;-58
2023/12/28 11:06:20;;;;;;;;;;;;;;;;;;5142754;28;20388;-59
2023/12/28 11:08:53;;;;;;;;;;;;;;;;;;5142513;28;20380;-59
2023/12/28 11:11:24;;;;;;;;;;;;;;;;;;5158524;28;20012;-58
2023/12/28 11:13:56;;;;;;;;;;;;;;;;;;5142416;28;20421;-60
2023/12/28 11:16:26;;;;;;;;;;;;;;;;;;5141993;28;19933;-58
2023/12/28 11:18:58;;;;;;;;;;;;;;;;;;5137132;28;19918;-59
2023/12/28 11:21:29;;;;;;;;;;;;;;;;;;5141885;28;19922;-59
2023/12/28 11:24:00;;;;;;;;;;;;;;;;;;5125731;28;19997;-58
2023/12/28 11:26:31;;;;;;;;;;;;;;;;;;5142246;28;20052;-57
2023/12/28 11:29:02;;;;;;;;;;;;;;;;;;5141583;28;19921;-58
2023/12/28 11:31:36;;;;;;;;;;;;;;;;;;5121999;28;19922;-57
2023/12/28 11:34:11;;;;;;;;;;;;;;;;;;5142177;28;19969;-58
2023/12/28 11:36:42;;;;;;;;;;;;;;;;;;5141993;28;19918;-58
2023/12/28 11:39:13;;;;;;;;;;;;;;;;;;5125588;28;20344;-58
2023/12/28 11:41:44;;;;;;;;;;;;;;;;;;5141608;28;19926;-58
2023/12/28 11:44:15;;;;;;;;;;;;;;;;;;5125543;28;20377;-59
2023/12/28 11:46:46;;;;;;;;;;;;;;;;;;5154818;28;19925;-58
2023/12/28 11:49:17;;;;;;;;;;;;;;;;;;5142022;28;19998;-58
2023/12/28 11:51:48;;;;;;;;;;;;;;;;;;5141723;28;20021;-58
2023/12/28 11:54:19;;;;;;;;;;;;;;;;;;5125467;28;19922;-58
2023/12/28 11:56:50;;;;;;;;;;;;;;;;;;5141439;28;19925;-57
2023/12/28 11:59:21;;;;;;;;;;;;;;;;;;5141640;28;19918;-57
2023/12/28 12:01:52;;;;;;;;;;;;;;;;;;5141301;28;19922;-59
2023/12/28 12:04:23;;;;;;;;;;;;;;;;;;5141809;28;19922;-57
2023/12/28 12:06:54;;;;;;;;;;;;;;;;;;5141218;28;20009;-57
2023/12/28 12:09:25;;;;;;;;;;;;;;;;;;5125015;28;20008;-58
2023/12/28 12:11:56;;;;;;;;;;;;;;;;;;5141378;28;19925;-58
2023/12/28 12:14:28;;;;;;;;;;;;;;;;;;5125301;28;20362;-57
2023/12/28 12:16:59;;;;;;;;;;;;;;;;;;5141361;28;19918;-58
2023/12/28 12:19:30;;;;;;;;;;;;;;;;;;5141261;28;19922;-58
2023/12/28 12:22:01;;;;;;;;;;;;;;;;;;5141098;28;19973;-58
2023/12/28 12:24:32;;;;;;;;;;;;;;;;;;5125449;28;19962;-58
2023/12/28 12:27:03;;;;;;;;;;;;;;;;;;5141214;28;19929;-58
2023/12/28 12:29:34;;;;;;;;;;;;;;;;;;5140844;28;19929;-58
2023/12/28 12:32:06;;;;;;;;;;;;;;;;;;5121177;28;20461;-58
2023/12/28 12:34:37;;;;;;;;;;;;;;;;;;5126193;28;19921;-58
2023/12/28 12:37:08;;;;;;;;;;;;;;;;;;5128998;28;19918;-59
2023/12/28 12:39:39;;;;;;;;;;;;;;;;;;5145580;28;19922;-59
2023/12/28 12:42:10;;;;;;;;;;;;;;;;;;5145012;28;20019;-59
2023/12/28 12:44:41;;;;;;;;;;;;;;;;;;5145934;28;19961;-59
2023/12/28 12:47:12;;;;;;;;;;;;;;;;;;5145061;28;19976;-61
2023/12/28 12:49:44;;;;;;;;;;;;;;;;;;5144964;28;19947;-59
2023/12/28 12:52:15;;;;;;;;;;;;;;;;;;5145060;28;19918;-60
2023/12/28 12:54:46;;;;;;;;;;;;;;;;;;5144482;28;19978;-59
2023/12/28 12:57:17;;;;;;;;;;;;;;;;;;5144627;28;19941;-59
2023/12/28 12:59:50;;;;;;;;;;;;;;;;;;5145059;28;19925;-59
2023/12/28 13:02:21;;;;;;;;;;;;;;;;;;5152507;28;19980;-59
2023/12/28 13:04:53;;;;;;;;;;;;;;;;;;5146375;28;19918;-60
2023/12/28 13:07:24;;;;;;;;;;;;;;;;;;5144568;28;19976;-59
2023/12/28 13:09:55;;;;;;;;;;;;;;;;;;5144322;28;19980;-59
2023/12/28 13:12:26;;;;;;;;;;;;;;;;;;5145964;28;19984;-59
2023/12/28 13:14:57;;;;;;;;;;;;;;;;;;5147241;28;19918;-59
2023/12/28 13:17:28;;;;;;;;;;;;;;;;;;5144466;28;19925;-59
2023/12/28 13:19:59;;;;;;;;;;;;;;;;;;5134414;28;20005;-59
2023/12/28 13:22:30;;;;;;;;;;;;;;;;;;5148580;28;20060;-59
2023/12/28 13:25:01;;;;;;;;;;;;;;;;;;5154714;28;20416;-60
2023/12/28 13:27:33;;;;;;;;;;;;;;;;;;5128132;28;19929;-59
2023/12/28 13:30:04;;;;;;;;;;;;;;;;;;5144421;28;19921;-60
2023/12/28 13:32:35;;;;;;;;;;;;;;;;;;5126947;28;20401;-59
2023/12/28 13:35:11;;;;;;;;;;;;;;;;;;5144417;28;19929;-59
2023/12/28 13:37:42;;;;;;;;;;;;;;;;;;5127910;28;19929;-59
2023/12/28 13:40:13;;;;;;;;;;;;;;;;;;5140335;28;19918;-60
2023/12/28 13:42:44;;;;;;;;;;;;;;;;;;5144257;28;19934;-59
2023/12/28 13:45:15;;;;;;;;;;;;;;;;;;5143924;28;19956;-59
2023/12/28 13:47:46;;;;;;;;;;;;;;;;;;5128460;28;19929;-62
2023/12/28 13:50:17;;;;;;;;;;;;;;;;;;5128197;28;19922;-61
2023/12/28 13:52:48;;;;;;;;;;;;;;;;;;5128001;28;19918;-59
2023/12/28 13:55:19;;;;;;;;;;;;;;;;;;5143787;28;20296;-60
2023/12/28 13:57:50;;;;;;;;;;;;;;;;;;5139491;28;20004;-59
2023/12/28 14:00:21;;;;;;;;;;;;;;;;;;5158329;28;20033;-60
2023/12/28 14:02:52;;;;;;;;;;;;;;;;;;5143383;28;19924;-59
2023/12/28 14:05:24;;;;;;;;;;;;;;;;;;5127186;28;19913;-59
2023/12/28 14:07:55;;;;;;;;;;;;;;;;;;5142815;28;19918;-60
2023/12/28 14:10:26;;;;;;;;;;;;;;;;;;5155287;28;19922;-60
2023/12/28 14:12:57;;;;;;;;;;;;;;;;;;5126483;28;19994;-60
2023/12/28 14:15:28;;;;;;;;;;;;;;;;;;5127547;28;19922;-59
2023/12/28 14:17:59;;;;;;;;;;;;;;;;;;5142916;28;19926;-60
2023/12/28 14:20:30;;;;;;;;;;;;;;;;;;5145127;28;19933;-60
2023/12/28 14:23:01;;;;;;;;;;;;;;;;;;5126873;28;19929;-58
2023/12/28 14:25:32;;;;;;;;;;;;;;;;;;5126015;28;20369;-58
2023/12/28 14:28:03;;;;;;;;;;;;;;;;;;5142713;28;19929;-59
2023/12/28 14:30:34;;;;;;;;;;;;;;;;;;5143407;28;19987;-59
2023/12/28 14:33:05;;;;;;;;;;;;;;;;;;5142747;28;19925;-60
2023/12/28 14:35:38;;;;;;;;;;;;;;;;;;5126983;28;19917;-59
2023/12/28 14:38:09;;;;;;;;;;;;;;;;;;5143856;28;19922;-58
2023/12/28 14:40:40;;;;;;;;;;;;;;;;;;5143083;28;19937;-60
2023/12/28 14:43:11;;;;;;;;;;;;;;;;;;5141567;28;19926;-59
2023/12/28 14:45:42;;;;;;;;;;;;;;;;;;5142316;28;19997;-59
2023/12/28 14:48:14;;;;;;;;;;;;;;;;;;5143436;28;19929;-58
2023/12/28 14:50:45;;;;;;;;;;;;;;;;;;5142222;28;20374;-61
2023/12/28 14:53:16;;;;;;;;;;;;;;;;;;5143039;28;19973;-59
2023/12/28 14:55:47;;;;;;;;;;;;;;;;;;5124672;28;19965;-59
2023/12/28 14:58:22;;;;;;;;;;;;;;;;;;5141290;28;20012;-58
2023/12/28 15:00:54;;;;;;;;;;;;;;;;;;5126502;28;20415;-58
2023/12/28 15:03:25;;;;;;;;;;;;;;;;;;5142481;28;19922;-58
2023/12/28 15:05:56;;;;;;;;;;;;;;;;;;5141819;28;19918;-59
2023/12/28 15:08:27;;;;;;;;;;;;;;;;;;5126566;28;19984;-58
2023/12/28 15:10:58;;;;;;;;;;;;;;;;;;5125509;28;20072;-58
2023/12/28 15:13:29;;;;;;;;;;;;;;;;;;5125409;28;19918;-58
2023/12/28 15:16:00;;;;;;;;;;;;;;;;;;5125151;28;20329;-58
2023/12/28 15:18:31;;;;;;;;;;;;;;;;;;5141319;28;19918;-58
2023/12/28 15:21:02;;;;;;;;;;;;;;;;;;5140334;28;19922;-58
2023/12/28 15:23:33;;;;;;;;;;;;;;;;;;5125821;28;19922;-58
2023/12/28 15:26:06;;;;;;;;;;;;;;;;;;5141718;28;19980;-58
2023/12/28 15:28:37;;;;;;;;;;;;;;;;;;5142586;28;20284;-58
2023/12/28 15:31:08;;;;;;;;;;;;;;;;;;5123261;28;19919;-58
2023/12/28 15:33:39;;;;;;;;;;;;;;;;;;5142357;28;20292;-60
2023/12/28 15:36:10;;;;;;;;;;;;;;;;;;5142114;28;19918;-59
2023/12/28 15:38:42;;;;;;;;;;;;;;;;;;5125951;28;19924;-59
2023/12/28 15:41:13;;;;;;;;;;;;;;;;;;5126202;28;19922;-58
2023/12/28 15:43:44;;;;;;;;;;;;;;;;;;5141721;28;19925;-59
2023/12/28 15:46:15;;;;;;;;;;;;;;;;;;5126607;28;19922;-59
2023/12/28 15:48:46;;;;;;;;;;;;;;;;;;5142260;28;20002;-58
2023/12/28 15:51:17;;;;;;;;;;;;;;;;;;5126533;28;20000;-58
2023/12/28 15:53:48;;;;;;;;;;;;;;;;;;5142089;28;19917;-59
2023/12/28 15:56:19;;;;;;;;;;;;;;;;;;5126545;28;19918;-58
2023/12/28 15:58:50;;;;;;;;;;;;;;;;;;5141833;28;19957;-58
2023/12/28 16:01:21;;;;;;;;;;;;;;;;;;5142340;28;20282;-60
2023/12/28 16:03:52;;;;;;;;;;;;;;;;;;5142102;28;19929;-58
2023/12/28 16:06:23;;;;;;;;;;;;;;;;;;5154409;28;19930;-59
2023/12/28 16:08:54;;;;;;;;;;;;;;;;;;5141928;28;19918;-58
2023/12/28 16:11:25;;;;;;;;;;;;;;;;;;5125696;28;20026;-59
2023/12/28 16:13:56;;;;;;;;;;;;;;;;;;5125907;28;20531;-58
2023/12/28 16:16:27;;;;;;;;;;;;;;;;;;5141912;28;20652;-59
2023/12/28 16:18:58;;;;;;;;;;;;;;;;;;5142053;28;19933;-58
2023/12/28 16:21:30;;;;;;;;;;;;;;;;;;5141046;28;20255;-58
2023/12/28 16:24:01;;;;;;;;;;;;;;;;;;5124539;28;19922;-59
2023/12/28 16:26:32;;;;;;;;;;;;;;;;;;5124918;28;19918;-59
2023/12/28 16:29:03;;;;;;;;;;;;;;;;;;5141727;28;19925;-59
2023/12/28 16:31:34;;;;;;;;;;;;;;;;;;5145966;28;20008;-58
2023/12/28 16:34:06;;;;;;;;;;;;;;;;;;5125230;28;19976;-58
2023/12/28 16:36:37;;;;;;;;;;;;;;;;;;5140739;28;20259;-58
2023/12/28 16:39:08;;;;;;;;;;;;;;;;;;5140034;28;19953;-58
2023/12/28 16:41:40;;;;;;;;;;;;;;;;;;5140532;28;20464;-59
2023/12/28 16:44:11;;;;;;;;;;;;;;;;;;5141083;28;19976;-59
2023/12/28 16:46:42;;;;;;;;;;;;;;;;;;5141002;28;19958;-58
2023/12/28 16:49:13;;;;;;;;;;;;;;;;;;5123944;28;19968;-59
2023/12/28 16:51:44;;;;;;;;;;;;;;;;;;5124384;28;20281;-59
2023/12/28 16:54:17;;;;;;;;;;;;;;;;;;5140726;28;19922;-58
2023/12/28 16:56:48;;;;;;;;;;;;;;;;;;5124038;28;19922;-58
2023/12/28 16:59:19;;;;;;;;;;;;;;;;;;5140960;28;19918;-59
2023/12/28 17:01:50;;;;;;;;;;;;;;;;;;5140405;28;20000;-59
2023/12/28 17:04:21;;;;;;;;;;;;;;;;;;5141071;28;20290;-59
2023/12/28 17:06:52;;;;;;;;;;;;;;;;;;5140425;28;19969;-59
2023/12/28 17:09:23;;;;;;;;;;;;;;;;;;5133415;28;20365;-59
2023/12/28 17:11:55;;;;;;;;;;;;;;;;;;5124785;28;20000;-60